Etusivu
METAR-TAF:

METAR-TAF

Lentoasemat :

Bergen, Norja

Bergenin lentoasema

Leveyspiiri: 60-17N, Pituuspiiri: 005-14E, korkeus merenpinnasta: 5 m

Tämänhetkinen sää

Tämä raportti tehtiin 16 minuuttia sitten, kello 09.50 UTC
tyyntä
Lämpötila 15°C
Kosteus 77%
Ilmanpaine 1027 hPa
Näkyvyys 10 km tai enemmän
Muutamia pilviä 3000 ft:n korkeudessa
Hajonneita pilviä 5000 ft:n korkeudessa

METAR: ENBR 240950Z 00000KT 9999 FEW030 BKN050 15/11 Q1027 NOSIG RMK WIND 1200FT 14010KT

Aika: 12:06 (10:06 UTC)

Sääennuste

Ennuste voimassa 24. päivästä klo 06 UTC - 25. päivään klo 06 UTC
Tuuli 5 kn etelästä/kaakosta
Näkyvyys 10 km tai enemmän
Muutamia pilviä 4000 ft:n korkeudessa
Hajonneita pilviä 5000 ft:n korkeudessa

TAF: ENBR 2406/2506 15005KT 9999 FEW040 BKN050

Säähavainnot ja -ennusteet yli 4000 lentoasemalta (METAR- ja TAF-raportit).

Käytössä olevat sääasemat on merkitty karttaan keltaisilla ja punaisilla pisteillä.

Aseta hiiri pisteen päälle nähdäksesi sääaseman nimen.

Klikkaa sitten nähdäksesi säähavainnot ja -ennusteet.

Kartan vaihtaminen: klikkaa mustalla rastilla varustettuja vihreitä pisteitä, niin voit zoomata sisään; viivalla varustettua vihreää pistettä, niin voit zoomata ulos tai vihreitä nuolia, niin pääset viereisille kartoille.


METAR-TAF: